Time;durP1;ratioP1;P1;durP2;ratioP2;P2;SDS_P1;SDS_P2;PMS_P1;PMS_P2;Temp;Humidity;BMP_temperature;BMP_pressure;BME280_temperature;BME280_humidity;BME280_pressure;Samples;Min_cycle;Max_cycle;Signal;HPM_P1;HPM_P2
2022/09/13 00:00:34;;;;;;;1.00;0.90;;;18.90;99.90;;;;;;5055759;28;20168;-57
2022/09/13 00:03:00;;;;;;;1.35;1.25;;;18.90;99.90;;;;;;5055756;28;20179;-57
2022/09/13 00:05:26;;;;;;;2.17;0.90;;;18.90;99.90;;;;;;5055698;28;20164;-56
2022/09/13 00:07:51;;;;;;;1.13;1.02;;;19.00;99.90;;;;;;5055520;28;20209;-56
2022/09/13 00:10:17;;;;;;;1.00;0.90;;;19.00;99.90;;;;;;5055460;28;20199;-58
2022/09/13 00:12:43;;;;;;;1.35;0.95;;;19.00;99.90;;;;;;5055623;28;20203;-56
2022/09/13 00:15:09;;;;;;;1.73;1.10;;;19.10;99.90;;;;;;5055410;28;20242;-57
2022/09/13 00:17:36;;;;;;;0.85;0.80;;;19.10;99.90;;;;;;5055350;28;20621;-56
2022/09/13 00:20:02;;;;;;;1.63;1.00;;;19.20;99.90;;;;;;5055369;28;20179;-58
2022/09/13 00:22:28;;;;;;;1.27;1.17;;;19.20;99.90;;;;;;5055234;28;20207;-57
2022/09/13 00:24:53;;;;;;;1.20;0.90;;;19.20;99.90;;;;;;5055206;28;20172;-58
2022/09/13 00:27:19;;;;;;;1.15;1.05;;;19.20;99.90;;;;;;5037444;28;20179;-58
2022/09/13 00:29:45;;;;;;;1.10;0.93;;;19.20;99.90;;;;;;5055321;28;20197;-58
2022/09/13 00:32:11;;;;;;;1.10;1.00;;;19.20;99.90;;;;;;5054079;28;20641;-57
2022/09/13 00:34:37;;;;;;;1.52;0.90;;;19.20;99.90;;;;;;5055039;28;20186;-57
2022/09/13 00:37:03;;;;;;;1.33;1.20;;;19.20;99.90;;;;;;5054636;28;20177;-58
2022/09/13 00:39:29;;;;;;;0.95;0.80;;;19.20;99.90;;;;;;5054943;28;20176;-57
2022/09/13 00:41:55;;;;;;;1.50;0.98;;;19.20;99.90;;;;;;5054865;28;20233;-58
2022/09/13 00:44:54;;;;;;;1.17;1.00;;;19.20;99.90;;;;;;5054942;28;20187;-58
2022/09/13 00:47:26;;;;;;;0.80;0.70;;;19.20;99.90;;;;;;5054892;28;20175;-58
2022/09/13 00:50:01;;;;;;;1.50;0.90;;;19.20;99.90;;;;;;5054735;28;20632;-58
2022/09/13 00:52:30;;;;;;;1.10;1.00;;;19.20;99.90;;;;;;5055029;28;20178;-58
2022/09/13 00:55:02;;;;;;;1.15;1.05;;;19.10;99.90;;;;;;5054763;28;20256;-57
2022/09/13 00:57:29;;;;;;;1.15;0.90;;;19.10;99.90;;;;;;5053495;28;20221;-57
2022/09/13 01:00:11;;;;;;;0.95;0.88;;;19.10;99.90;;;;;;5054664;28;20211;-58
2022/09/13 01:02:40;;;;;;;1.42;1.17;;;19.10;99.90;;;;;;5054471;28;20683;-57
2022/09/13 01:05:07;;;;;;;1.77;1.23;;;19.00;99.90;;;;;;5053375;28;20203;-58
2022/09/13 01:07:33;;;;;;;2.05;1.17;;;19.00;99.90;;;;;;5053500;28;20172;-58
2022/09/13 01:10:02;;;;;;;1.08;0.90;;;19.00;99.90;;;;;;5053595;28;20229;-58
2022/09/13 01:12:45;;;;;;;1.40;0.95;;;19.00;99.90;;;;;;5054337;28;20186;-58
2022/09/13 01:15:10;;;;;;;1.40;1.00;;;19.00;99.90;;;;;;5054267;28;20213;-57
2022/09/13 01:17:38;;;;;;;1.35;1.23;;;18.90;99.90;;;;;;5054465;28;20171;-57
2022/09/13 01:20:05;;;;;;;1.10;1.00;;;19.00;99.90;;;;;;5054256;28;20171;-57
2022/09/13 01:23:25;;;;;;;1.50;0.98;;;19.00;99.90;;;;;;5052905;28;20203;-58
2022/09/13 01:26:47;;;;;;;0.82;0.80;;;19.00;99.90;;;;;;5031980;28;20184;-58
2022/09/13 01:30:09;;;;;;;1.02;0.90;;;19.00;99.90;;;;;;4953997;28;20659;-58
2022/09/13 01:33:12;;;;;;;0.80;0.70;;;19.00;99.90;;;;;;4953895;28;20182;-56
2022/09/13 01:35:46;;;;;;;1.10;0.80;;;18.80;99.90;;;;;;4973131;28;20229;-57
2022/09/13 01:38:53;;;;;;;1.38;1.08;;;18.70;99.90;;;;;;5045795;28;20214;-57
2022/09/13 01:41:54;;;;;;;1.05;0.95;;;18.70;99.90;;;;;;5038699;28;20211;-57
2022/09/13 01:44:32;;;;;;;1.38;1.05;;;18.70;99.90;;;;;;5053717;28;20537;-57
2022/09/13 01:47:28;;;;;;;1.08;0.80;;;18.70;99.90;;;;;;5053734;28;20175;-57
2022/09/13 01:50:17;;;;;;;1.20;1.10;;;18.60;99.90;;;;;;5053273;28;20518;-58
2022/09/13 01:52:57;;;;;;;0.80;0.80;;;18.60;99.90;;;;;;5053977;28;20190;-57
2022/09/13 01:55:45;;;;;;;1.02;0.93;;;18.60;99.90;;;;;;5053703;28;20206;-57
2022/09/13 01:58:28;;;;;;;0.85;0.85;;;18.60;99.90;;;;;;5053530;28;20163;-57
2022/09/13 02:01:00;;;;;;;0.77;0.77;;;18.60;99.90;;;;;;5053656;28;20203;-58
2022/09/13 02:03:32;;;;;;;1.08;0.90;;;18.50;99.90;;;;;;5053591;28;20228;-57
2022/09/13 02:06:08;;;;;;;1.10;0.93;;;18.50;99.90;;;;;;5052265;28;20175;-56
2022/09/13 02:08:39;;;;;;;1.88;1.48;;;18.40;99.90;;;;;;5053400;28;20209;-57
2022/09/13 02:11:09;;;;;;;1.42;1.17;;;18.30;99.90;;;;;;5053307;28;20210;-57
2022/09/13 02:13:40;;;;;;;1.83;1.23;;;18.30;99.90;;;;;;5052306;28;20197;-57
2022/09/13 02:16:36;;;;;;;2.08;1.10;;;18.40;99.90;;;;;;5053511;28;20244;-58
2022/09/13 02:19:09;;;;;;;1.33;0.90;;;18.40;99.90;;;;;;5052834;28;20249;-58
2022/09/13 02:21:38;;;;;;;1.13;0.90;;;18.50;99.90;;;;;;5053136;28;20195;-57
2022/09/13 02:24:12;;;;;;;1.13;0.88;;;18.50;99.90;;;;;;5053493;28;20533;-57
2022/09/13 02:26:39;;;;;;;1.55;1.23;;;18.50;99.90;;;;;;5053584;28;20163;-57
2022/09/13 02:29:10;;;;;;;0.88;0.80;;;18.50;99.90;;;;;;5052114;28;20183;-57
2022/09/13 02:31:43;;;;;;;2.35;1.00;;;18.50;99.90;;;;;;5053204;28;20171;-57
2022/09/13 02:34:18;;;;;;;1.05;0.95;;;18.50;99.90;;;;;;5053104;28;20641;-58
2022/09/13 02:36:47;;;;;;;1.50;1.40;;;18.40;99.90;;;;;;5053247;28;20171;-57
2022/09/13 02:39:16;;;;;;;1.73;1.27;;;18.40;99.90;;;;;;5053130;28;20186;-58
2022/09/13 02:41:51;;;;;;;0.82;0.80;;;18.40;99.90;;;;;;5053031;28;20285;-58
2022/09/13 02:44:22;;;;;;;0.60;0.60;;;18.40;99.90;;;;;;5053171;28;20187;-58
2022/09/13 02:47:21;;;;;;;0.88;0.82;;;18.50;99.90;;;;;;5053189;28;20191;-58
2022/09/13 02:50:05;;;;;;;1.05;0.80;;;18.50;99.90;;;;;;5052934;28;20229;-57
2022/09/13 02:52:53;;;;;;;1.50;1.00;;;18.40;99.90;;;;;;5053054;28;20178;-58
2022/09/13 02:55:34;;;;;;;1.05;0.95;;;18.40;99.90;;;;;;5052872;28;20609;-58
2022/09/13 02:58:08;;;;;;;1.55;1.00;;;18.50;99.90;;;;;;5053133;28;20563;-57
2022/09/13 03:00:34;;;;;;;1.35;0.80;;;18.50;99.90;;;;;;5054620;28;20261;-57
2022/09/13 03:03:05;;;;;;;0.90;0.90;;;18.50;99.90;;;;;;5056751;28;20218;-57
2022/09/13 03:05:31;;;;;;;1.17;1.00;;;18.50;99.90;;;;;;5057011;28;20225;-57
2022/09/13 03:07:59;;;;;;;0.90;0.88;;;18.50;99.90;;;;;;5056839;28;20645;-58
2022/09/13 03:10:29;;;;;;;1.48;0.80;;;18.40;99.90;;;;;;5056792;28;20182;-58
2022/09/13 03:13:01;;;;;;;0.98;0.85;;;18.50;99.90;;;;;;5056846;28;20167;-58
2022/09/13 03:15:59;;;;;;;1.40;1.10;;;18.50;99.90;;;;;;5056964;28;20199;-57
2022/09/13 03:18:27;;;;;;;0.90;0.90;;;18.50;99.90;;;;;;5056731;28;20254;-57
2022/09/13 03:21:36;;;;;;;1.40;1.00;;;18.50;99.90;;;;;;5056514;28;20177;-57
2022/09/13 03:24:23;;;;;;;0.98;0.90;;;18.40;99.90;;;;;;5056400;28;20176;-57
2022/09/13 03:27:12;;;;;;;1.30;1.20;;;18.40;99.90;;;;;;5056777;28;20217;-57
2022/09/13 03:30:04;;;;;;;1.65;0.88;;;18.40;99.90;;;;;;5056481;28;20171;-57
2022/09/13 03:32:47;;;;;;;1.35;1.00;;;18.40;99.90;;;;;;5056400;28;20179;-58
2022/09/13 03:35:49;;;;;;;1.10;0.98;;;18.50;99.90;;;;;;5056394;28;20172;-57
2022/09/13 03:38:20;;;;;;;1.08;0.93;;;18.50;99.90;;;;;;5056225;28;20693;-57
2022/09/13 03:40:53;;;;;;;1.33;1.10;;;18.40;99.90;;;;;;5056043;28;20308;-56
2022/09/13 03:43:35;;;;;;;1.30;0.90;;;18.40;99.90;;;;;;5056404;28;20179;-57
2022/09/13 03:46:14;;;;;;;0.98;0.88;;;18.40;99.90;;;;;;5056400;28;20220;-57
2022/09/13 03:48:41;;;;;;;1.30;0.95;;;18.50;99.90;;;;;;5056022;28;20167;-58
2022/09/13 03:51:08;;;;;;;1.27;0.90;;;18.50;99.90;;;;;;5055753;28;20656;-57
2022/09/13 03:53:39;;;;;;;1.00;0.90;;;18.50;99.90;;;;;;5056052;28;20237;-56
2022/09/13 03:56:15;;;;;;;1.25;1.15;;;18.50;99.90;;;;;;5056032;28;20175;-57
2022/09/13 03:58:42;;;;;;;1.50;1.00;;;18.60;99.90;;;;;;5056027;28;20175;-57
2022/09/13 04:01:09;;;;;;;1.42;0.90;;;18.60;99.90;;;;;;5055640;28;20231;-58
2022/09/13 04:03:36;;;;;;;1.75;1.20;;;18.60;99.90;;;;;;5055678;28;20203;-58
2022/09/13 04:06:02;;;;;;;1.13;0.90;;;18.60;99.90;;;;;;5055848;28;20643;-57
2022/09/13 04:08:28;;;;;;;1.70;1.00;;;18.60;99.90;;;;;;5055672;28;20175;-58
2022/09/13 04:10:53;;;;;;;1.20;0.90;;;18.60;99.90;;;;;;5054486;28;20221;-58
2022/09/13 04:13:21;;;;;;;1.10;1.00;;;18.60;99.90;;;;;;5054851;28;20233;-58
2022/09/13 04:15:47;;;;;;;1.10;1.00;;;18.40;99.90;;;;;;5053707;28;20199;-58
2022/09/13 04:18:13;;;;;;;1.48;1.02;;;18.50;99.90;;;;;;5054237;28;20171;-57
2022/09/13 04:20:39;;;;;;;1.15;0.90;;;18.40;99.90;;;;;;5054319;28;20676;-58
2022/09/13 04:23:04;;;;;;;2.28;1.10;;;18.40;99.90;;;;;;5054196;28;20203;-57
2022/09/13 04:25:30;;;;;;;1.13;1.02;;;18.40;99.90;;;;;;5055217;28;20175;-57
2022/09/13 04:27:59;;;;;;;1.33;0.90;;;18.40;99.90;;;;;;5055209;28;20187;-57
2022/09/13 04:30:27;;;;;;;1.17;1.08;;;18.50;99.90;;;;;;5055229;28;20728;-58
2022/09/13 04:32:56;;;;;;;1.40;0.95;;;18.50;99.90;;;;;;5054948;28;20187;-57
2022/09/13 04:35:22;;;;;;;1.55;1.00;;;18.40;99.90;;;;;;5055286;28;20313;-56
2022/09/13 04:37:48;;;;;;;0.73;0.70;;;18.40;99.90;;;;;;5053940;28;20578;-57
2022/09/13 04:40:14;;;;;;;1.48;1.10;;;18.40;99.90;;;;;;5055030;28;20248;-57
2022/09/13 04:42:39;;;;;;;1.55;0.98;;;18.40;99.90;;;;;;5055045;28;20238;-58
2022/09/13 04:45:06;;;;;;;0.80;0.70;;;18.40;99.90;;;;;;5055283;28;20249;-58
2022/09/13 04:47:31;;;;;;;0.85;0.85;;;18.40;99.90;;;;;;5054769;28;20591;-57
2022/09/13 04:49:57;;;;;;;0.95;0.85;;;18.40;99.90;;;;;;5054990;28;20249;-57
2022/09/13 04:52:23;;;;;;;0.85;0.80;;;18.40;99.90;;;;;;5054972;28;20176;-57
2022/09/13 04:54:48;;;;;;;1.08;0.98;;;18.40;99.90;;;;;;5053896;28;20284;-57
2022/09/13 04:57:18;;;;;;;1.00;0.90;;;18.40;99.90;;;;;;5054901;28;20203;-59
2022/09/13 04:59:43;;;;;;;0.85;0.80;;;18.30;99.90;;;;;;5053229;28;20186;-58
2022/09/13 05:02:09;;;;;;;1.42;0.90;;;18.20;99.90;;;;;;5036427;28;20196;-59
2022/09/13 05:04:35;;;;;;;1.20;1.10;;;18.20;99.90;;;;;;5052930;28;20297;-57
2022/09/13 05:07:00;;;;;;;1.30;1.13;;;18.20;99.90;;;;;;5053045;28;20580;-58
2022/09/13 05:09:26;;;;;;;1.42;1.00;;;18.30;99.90;;;;;;5053649;28;20229;-58
2022/09/13 05:11:52;;;;;;;1.20;1.10;;;18.30;99.90;;;;;;5054298;28;20210;-59
2022/09/13 05:14:18;;;;;;;1.50;0.95;;;18.20;99.90;;;;;;5052943;28;20195;-59
2022/09/13 05:16:43;;;;;;;1.92;1.38;;;18.20;99.90;;;;;;5054796;28;20598;-59
2022/09/13 05:19:10;;;;;;;1.48;1.00;;;18.10;99.90;;;;;;5054380;28;20179;-58
2022/09/13 05:21:36;;;;;;;1.98;0.88;;;18.20;99.90;;;;;;5054474;28;20203;-58
2022/09/13 05:24:02;;;;;;;1.67;1.15;;;18.30;99.90;;;;;;5052173;28;20198;-58
2022/09/13 05:26:32;;;;;;;1.52;1.17;;;18.30;99.90;;;;;;5054116;28;20171;-58
2022/09/13 05:28:58;;;;;;;1.50;1.00;;;18.30;99.90;;;;;;5054000;28;20266;-57
2022/09/13 05:31:31;;;;;;;1.10;1.00;;;18.40;99.90;;;;;;5054136;28;20218;-58
2022/09/13 05:34:09;;;;;;;1.33;1.05;;;18.30;99.90;;;;;;5054093;28;20183;-58
2022/09/13 05:36:35;;;;;;;2.13;1.40;;;18.30;99.90;;;;;;5054099;28;20175;-57
2022/09/13 05:39:02;;;;;;;1.98;1.10;;;18.40;99.90;;;;;;5053895;28;20225;-58
2022/09/13 05:41:28;;;;;;;1.17;1.02;;;18.40;99.90;;;;;;5053641;28;20194;-58
2022/09/13 05:43:53;;;;;;;1.65;1.20;;;18.40;99.90;;;;;;5053965;28;20212;-58
2022/09/13 05:46:20;;;;;;;1.30;1.15;;;18.30;99.90;;;;;;5052680;28;20185;-58
2022/09/13 05:48:47;;;;;;;1.13;1.02;;;18.30;99.90;;;;;;5052691;28;20179;-58
2022/09/13 05:51:21;;;;;;;1.23;0.80;;;18.40;99.90;;;;;;5053667;28;20189;-58
2022/09/13 05:53:51;;;;;;;1.45;1.15;;;18.40;99.90;;;;;;5053640;28;20175;-58
2022/09/13 05:56:20;;;;;;;0.88;0.88;;;18.40;99.90;;;;;;5052297;28;20194;-58
2022/09/13 05:58:47;;;;;;;0.95;0.82;;;18.40;99.90;;;;;;5053948;28;20175;-57
2022/09/13 06:01:15;;;;;;;1.10;1.00;;;18.30;99.90;;;;;;5053395;28;20224;-58
2022/09/13 06:03:41;;;;;;;1.83;1.10;;;18.40;99.90;;;;;;5053506;28;20175;-58
2022/09/13 06:06:07;;;;;;;1.50;1.10;;;18.50;99.90;;;;;;5053417;28;20203;-58
2022/09/13 06:08:34;;;;;;;1.40;1.10;;;18.50;99.90;;;;;;5053326;28;20179;-58
2022/09/13 06:11:05;;;;;;;1.88;1.15;;;18.50;99.90;;;;;;5053393;28;20262;-58
2022/09/13 06:13:31;;;;;;;1.27;1.08;;;18.50;99.90;;;;;;5053540;28;20172;-58
2022/09/13 06:15:59;;;;;;;1.35;1.10;;;18.50;99.90;;;;;;5053428;28;20191;-59
2022/09/13 06:18:26;;;;;;;1.20;1.10;;;18.50;99.90;;;;;;5053348;28;20163;-59
2022/09/13 06:21:00;;;;;;;0.98;0.88;;;18.60;99.90;;;;;;5053183;28;20266;-58
2022/09/13 06:23:27;;;;;;;1.10;0.85;;;18.60;99.90;;;;;;5053595;28;20261;-58
2022/09/13 06:26:10;;;;;;;0.90;0.90;;;18.60;99.90;;;;;;5052102;28;20255;-58
2022/09/13 06:28:36;;;;;;;1.23;0.90;;;18.60;99.90;;;;;;5053310;28;20228;-57
2022/09/13 06:31:10;;;;;;;1.10;0.90;;;18.70;99.90;;;;;;5053099;28;20617;-58
2022/09/13 06:33:37;;;;;;;2.08;1.23;;;18.70;99.90;;;;;;5053044;28;20624;-58
2022/09/13 06:36:08;;;;;;;2.35;1.00;;;18.80;99.90;;;;;;5051670;28;20317;-58
2022/09/13 06:38:34;;;;;;;1.58;0.93;;;18.80;99.90;;;;;;5053266;28;20164;-57
2022/09/13 06:41:08;;;;;;;1.13;0.98;;;18.80;99.90;;;;;;5035406;28;20186;-58
2022/09/13 06:43:35;;;;;;;1.10;1.00;;;18.90;99.90;;;;;;5053051;28;20304;-58
2022/09/13 06:46:03;;;;;;;1.15;1.05;;;18.90;99.90;;;;;;5052894;28;20210;-59
2022/09/13 06:48:34;;;;;;;2.30;1.00;;;19.00;99.90;;;;;;5052034;28;20525;-58
2022/09/13 06:51:02;;;;;;;1.20;1.10;;;19.00;99.90;;;;;;5053101;28;20183;-58
2022/09/13 06:53:28;;;;;;;1.20;1.00;;;19.00;99.90;;;;;;5052873;28;20548;-59
2022/09/13 06:56:34;;;;;;;1.27;0.90;;;19.10;99.90;;;;;;5052907;28;20172;-58
2022/09/13 06:59:03;;;;;;;1.20;1.10;;;19.10;99.90;;;;;;5047938;28;20187;-58
2022/09/13 07:01:45;;;;;;;1.50;1.10;;;19.10;99.90;;;;;;5052909;28;20191;-58
2022/09/13 07:04:15;;;;;;;1.70;1.40;;;19.20;99.90;;;;;;5052998;28;20172;-58
2022/09/13 07:06:44;;;;;;;1.40;1.20;;;19.10;99.90;;;;;;5052857;28;20171;-58
2022/09/13 07:09:18;;;;;;;1.20;1.10;;;19.20;99.90;;;;;;5052718;28;20214;-58
2022/09/13 07:11:46;;;;;;;1.63;1.35;;;19.30;99.90;;;;;;5052909;28;20179;-58
2022/09/13 07:14:17;;;;;;;3.20;1.60;;;19.30;99.90;;;;;;5052604;28;20183;-58
2022/09/13 07:16:44;;;;;;;1.88;1.20;;;19.30;99.90;;;;;;5051715;28;20172;-58
2022/09/13 07:19:19;;;;;;;2.20;1.40;;;19.40;99.90;;;;;;5052703;28;20203;-57
2022/09/13 07:21:45;;;;;;;1.95;1.45;;;19.50;99.90;;;;;;5052906;28;20348;-58
2022/09/13 07:24:11;;;;;;;6.13;2.08;;;19.60;99.90;;;;;;5052757;28;20282;-58
2022/09/13 07:26:37;;;;;;;1.75;1.20;;;19.60;99.90;;;;;;5051529;28;20182;-58
2022/09/13 07:29:06;;;;;;;3.05;1.70;;;19.80;99.90;;;;;;5052669;28;20176;-58
2022/09/13 07:31:35;;;;;;;3.38;1.48;;;19.80;99.90;;;;;;5052489;28;20171;-58
2022/09/13 07:34:06;;;;;;;2.05;1.52;;;19.80;99.90;;;;;;5052397;28;20175;-58
2022/09/13 07:36:34;;;;;;;2.17;1.50;;;20.00;99.90;;;;;;5052699;28;20172;-59
2022/09/13 07:39:00;;;;;;;1.65;1.55;;;20.10;99.90;;;;;;5052500;28;20593;-58
2022/09/13 07:41:28;;;;;;;2.03;1.48;;;20.20;99.90;;;;;;5052510;28;20207;-59
2022/09/13 07:43:54;;;;;;;1.80;1.50;;;20.20;99.90;;;;;;5052458;28;20195;-59
2022/09/13 07:46:22;;;;;;;1.60;1.45;;;20.30;99.90;;;;;;5052312;28;20563;-58
2022/09/13 07:48:50;;;;;;;1.95;1.30;;;20.40;99.90;;;;;;5055639;28;20175;-58
2022/09/13 07:51:19;;;;;;;2.38;1.75;;;20.40;99.90;;;;;;5056184;28;20217;-58
2022/09/13 07:53:46;;;;;;;1.83;1.50;;;20.40;99.90;;;;;;5056043;28;20553;-58
2022/09/13 07:56:15;;;;;;;1.85;1.67;;;20.50;99.90;;;;;;5054699;28;20653;-58
2022/09/13 07:58:42;;;;;;;2.47;1.98;;;20.60;99.90;;;;;;5055923;28;20179;-58
2022/09/13 08:01:14;;;;;;;2.60;1.75;;;20.60;99.90;;;;;;5055698;28;20203;-58
2022/09/13 08:03:40;;;;;;;4.43;2.10;;;20.70;99.90;;;;;;5056079;28;20197;-58
2022/09/13 08:06:07;;;;;;;3.30;2.00;;;20.90;99.90;;;;;;5055663;28;20164;-58
2022/09/13 08:08:34;;;;;;;3.05;1.92;;;21.00;99.90;;;;;;5054554;28;20175;-58
2022/09/13 08:11:01;;;;;;;2.95;2.25;;;21.10;99.90;;;;;;5055609;28;20176;-58
2022/09/13 08:13:27;;;;;;;3.58;1.92;;;21.30;99.90;;;;;;5055526;28;20262;-58
2022/09/13 08:15:54;;;;;;;3.28;2.03;;;21.50;99.90;;;;;;5055801;28;20279;-58
2022/09/13 08:18:21;;;;;;;4.00;2.72;;;21.60;99.90;;;;;;5055631;28;20179;-59
2022/09/13 08:20:46;;;;;;;4.53;2.83;;;21.80;99.90;;;;;;5055490;28;20182;-58
2022/09/13 08:23:13;;;;;;;3.00;2.50;;;22.10;99.90;;;;;;5055532;28;20203;-58
2022/09/13 08:25:39;;;;;;;4.20;2.85;;;22.30;99.90;;;;;;5055381;28;20218;-58
2022/09/13 08:28:07;;;;;;;4.82;3.03;;;22.30;99.90;;;;;;5055209;28;20179;-59
2022/09/13 08:30:35;;;;;;;3.65;2.15;;;22.10;99.90;;;;;;5055456;28;20176;-59
2022/09/13 08:33:02;;;;;;;3.40;2.33;;;22.10;99.90;;;;;;5055290;28;20186;-58
2022/09/13 08:35:28;;;;;;;2.90;2.13;;;22.20;99.90;;;;;;5055185;28;20174;-58
2022/09/13 08:37:55;;;;;;;4.20;2.60;;;22.30;99.90;;;;;;5055452;28;20171;-59
2022/09/13 08:40:23;;;;;;;4.55;2.85;;;22.50;99.90;;;;;;5055164;28;20181;-59
2022/09/13 08:43:03;;;;;;;5.95;2.95;;;22.50;99.90;;;;;;5054858;28;20289;-59
2022/09/13 08:45:29;;;;;;;3.83;2.58;;;22.60;99.90;;;;;;5055028;28;20194;-58
2022/09/13 08:48:05;;;;;;;5.15;2.90;;;22.60;99.90;;;;;;5054943;28;20187;-58
2022/09/13 08:50:35;;;;;;;3.45;2.33;;;22.70;99.90;;;;;;5054858;28;20179;-58
2022/09/13 08:53:26;;;;;;;4.47;3.03;;;22.80;99.90;;;;;;5054707;28;20179;-58
2022/09/13 08:55:55;;;;;;;4.75;2.70;;;23.00;99.90;;;;;;5054993;28;20174;-58
2022/09/13 08:58:43;;;;;;;4.50;2.60;;;23.20;99.90;;;;;;5054455;28;20538;-58
2022/09/13 09:01:23;;;;;;;5.50;3.28;;;23.30;99.90;;;;;;5054692;28;20207;-58
2022/09/13 09:04:02;;;;;;;3.30;2.30;;;23.30;99.90;;;;;;5054503;28;20661;-58
2022/09/13 09:06:28;;;;;;;4.28;2.63;;;23.30;99.90;;;;;;5053687;28;20526;-58
2022/09/13 09:09:04;;;;;;;4.45;3.10;;;23.20;99.90;;;;;;5054666;28;20174;-58
2022/09/13 09:11:58;;;;;;;4.45;2.85;;;23.20;99.90;;;;;;5054786;28;20194;-58
2022/09/13 09:14:32;;;;;;;4.40;2.75;;;23.10;99.90;;;;;;5054218;28;20716;-58
2022/09/13 09:17:03;;;;;;;3.55;2.45;;;23.30;99.90;;;;;;5054373;28;20190;-58
2022/09/13 09:19:35;;;;;;;4.47;2.50;;;23.50;99.90;;;;;;5054563;28;20175;-58
2022/09/13 09:22:10;;;;;;;3.75;2.78;;;23.70;99.90;;;;;;5054447;28;20278;-58
2022/09/13 09:24:37;;;;;;;4.10;2.53;;;23.90;99.90;;;;;;5054433;28;20203;-58
2022/09/13 09:27:15;;;;;;;5.63;2.88;;;24.00;99.90;;;;;;5054167;28;20616;-58
2022/09/13 09:29:45;;;;;;;7.40;2.85;;;24.20;99.90;;;;;;5053232;28;20179;-58
2022/09/13 09:32:29;;;;;;;6.40;3.75;;;24.10;99.90;;;;;;5054126;28;20537;-58
2022/09/13 09:34:58;;;;;;;4.90;2.80;;;24.00;99.90;;;;;;5053821;28;20191;-58
2022/09/13 09:37:26;;;;;;;6.18;3.70;;;24.20;99.90;;;;;;5052970;28;20253;-60
2022/09/13 09:39:57;;;;;;;7.32;4.03;;;24.20;99.90;;;;;;5054026;28;20652;-58
2022/09/13 09:42:28;;;;;;;5.82;3.60;;;24.40;99.90;;;;;;5053965;28;20285;-58
2022/09/13 09:45:17;;;;;;;7.82;4.45;;;24.40;99.90;;;;;;5054090;28;20187;-58
2022/09/13 09:47:48;;;;;;;5.75;3.53;;;24.40;99.90;;;;;;5053989;28;20207;-58
2022/09/13 09:50:18;;;;;;;6.07;3.22;;;24.40;99.90;;;;;;5053883;28;20202;-58
2022/09/13 09:53:03;;;;;;;5.20;3.20;;;24.70;99.90;;;;;;5053943;28;20524;-58
2022/09/13 09:55:34;;;;;;;4.38;3.47;;;24.70;99.90;;;;;;5053670;28;20736;-58
2022/09/13 09:58:05;;;;;;;7.13;3.95;;;24.60;99.90;;;;;;5053906;28;20217;-58
2022/09/13 10:00:36;;;;;;;6.85;4.38;;;24.80;99.90;;;;;;5053442;28;20628;-58
2022/09/13 10:03:15;;;;;;;6.28;3.00;;;24.70;99.90;;;;;;5053470;28;20199;-58
2022/09/13 10:05:42;;;;;;;6.15;3.78;;;24.70;99.90;;;;;;5053656;28;20175;-58
2022/09/13 10:08:27;;;;;;;4.07;3.03;;;24.50;99.90;;;;;;5053422;28;20175;-58
2022/09/13 10:10:56;;;;;;;4.53;3.30;;;24.80;99.90;;;;;;5053017;28;20164;-58
2022/09/13 10:13:23;;;;;;;5.50;3.22;;;24.90;99.90;;;;;;5053423;28;20172;-58
2022/09/13 10:16:02;;;;;;;4.05;2.92;;;24.90;99.90;;;;;;5053190;28;20195;-59
2022/09/13 10:18:30;;;;;;;7.30;4.18;;;24.70;99.90;;;;;;5053234;28;20221;-58
2022/09/13 10:21:18;;;;;;;4.55;2.80;;;24.40;99.90;;;;;;5053175;28;20176;-59
2022/09/13 10:23:49;;;;;;;5.35;3.35;;;24.60;99.90;;;;;;5053409;28;20256;-58
2022/09/13 10:26:25;;;;;;;5.47;3.70;;;24.70;99.90;;;;;;5053198;28;20176;-58
2022/09/13 10:28:51;;;;;;;5.10;3.20;;;24.60;99.90;;;;;;5053207;28;20175;-58
2022/09/13 10:31:19;;;;;;;5.65;3.70;;;24.50;99.90;;;;;;5053099;28;20179;-58
2022/09/13 10:34:13;;;;;;;6.53;4.13;;;24.40;99.90;;;;;;5053282;28;20179;-58
2022/09/13 10:37:08;;;;;;;8.10;4.32;;;24.50;99.90;;;;;;5044490;28;20183;-58
2022/09/13 10:39:35;;;;;;;8.02;4.13;;;24.60;99.90;;;;;;5050051;28;20649;-58
2022/09/13 10:42:09;;;;;;;6.88;3.78;;;24.70;99.90;;;;;;5053114;28;20690;-57
2022/09/13 10:44:52;;;;;;;5.80;3.15;;;24.60;99.90;;;;;;5052943;28;20179;-58
2022/09/13 10:47:22;;;;;;;5.22;3.47;;;24.70;99.90;;;;;;5053047;28;20694;-58
2022/09/13 10:49:51;;;;;;;6.90;4.00;;;24.90;99.90;;;;;;5053018;28;20258;-58
2022/09/13 10:52:47;;;;;;;5.07;3.25;;;25.20;99.90;;;;;;5053103;28;20267;-58
2022/09/13 10:55:19;;;;;;;7.50;3.70;;;25.60;99.90;;;;;;5053104;28;20193;-58
2022/09/13 10:57:46;;;;;;;5.75;3.50;;;25.50;99.90;;;;;;5053086;28;20652;-59
2022/09/13 11:00:16;;;;;;;5.90;3.45;;;25.00;99.90;;;;;;5052787;28;20179;-58
2022/09/13 11:02:54;;;;;;;4.00;2.75;;;24.50;99.90;;;;;;5053070;28;20206;-58
2022/09/13 11:05:31;;;;;;;4.47;3.20;;;24.30;99.90;;;;;;5052937;28;20171;-58
2022/09/13 11:08:33;;;;;;;4.80;3.00;;;24.30;99.90;;;;;;5052846;28;20182;-58
2022/09/13 11:11:14;;;;;;;3.30;2.45;;;24.10;99.90;;;;;;5052923;28;20692;-58
2022/09/13 11:14:01;;;;;;;6.85;4.57;;;24.30;99.90;;;;;;5052627;28;20564;-58
2022/09/13 11:17:07;;;;;;;6.22;4.05;;;24.20;99.90;;;;;;5052749;28;20187;-59
2022/09/13 11:20:05;;;;;;;5.20;3.30;;;24.40;99.90;;;;;;5052921;28;20175;-59
2022/09/13 11:22:37;;;;;;;6.07;3.45;;;24.10;99.90;;;;;;5043802;28;20273;-58
2022/09/13 11:25:44;;;;;;;3.85;2.72;;;24.20;99.90;;;;;;5056517;28;20211;-58
2022/09/13 11:28:24;;;;;;;5.95;3.35;;;24.40;99.90;;;;;;5047733;28;20268;-57
2022/09/13 11:31:24;;;;;;;5.55;3.28;;;24.30;99.90;;;;;;5056406;28;20205;-59
2022/09/13 11:34:17;;;;;;;5.95;3.78;;;24.40;99.90;;;;;;5056294;28;20221;-58
2022/09/13 11:36:57;;;;;;;7.03;3.95;;;24.20;99.90;;;;;;5056369;28;20198;-58
2022/09/13 11:39:25;;;;;;;5.80;3.90;;;24.50;99.90;;;;;;5056208;28;20178;-58
2022/09/13 11:42:15;;;;;;;5.65;3.13;;;24.70;99.90;;;;;;5056002;28;20214;-58
2022/09/13 11:45:19;;;;;;;6.50;3.80;;;25.10;99.90;;;;;;5056051;28;20237;-58
2022/09/13 11:47:54;;;;;;;6.82;3.83;;;25.30;99.90;;;;;;5052262;28;20191;-58
2022/09/13 11:50:33;;;;;;;7.93;5.35;;;25.50;99.90;;;;;;5055954;28;20699;-58
2022/09/13 11:53:40;;;;;;;7.35;5.07;;;25.30;99.90;;;;;;5056165;28;20183;-58
2022/09/13 11:56:18;;;;;;;6.53;4.53;;;25.30;99.90;;;;;;5055940;28;20535;-58
2022/09/13 11:58:47;;;;;;;6.30;4.32;;;25.10;99.90;;;;;;5055784;28;20179;-58
2022/09/13 12:01:19;;;;;;;5.78;3.42;;;25.20;99.90;;;;;;5055809;28;20324;-58
2022/09/13 12:03:59;;;;;;;5.40;4.13;;;25.40;99.90;;;;;;5055784;28;20636;-58
2022/09/13 12:06:34;;;;;;;7.45;4.30;;;25.50;99.90;;;;;;5055732;28;20171;-58
2022/09/13 12:09:13;;;;;;;5.40;3.53;;;25.10;99.90;;;;;;5055588;28;20292;-58
2022/09/13 12:11:47;;;;;;;7.57;4.53;;;25.00;99.90;;;;;;5055825;28;20175;-58
2022/09/13 12:14:18;;;;;;;5.60;4.18;;;24.90;99.90;;;;;;5055687;28;20241;-58
2022/09/13 12:16:45;;;;;;;7.93;4.40;;;24.60;99.90;;;;;;5055561;28;20178;-58
2022/09/13 12:19:28;;;;;;;6.50;4.57;;;24.40;99.90;;;;;;5055455;28;20222;-58
2022/09/13 12:21:56;;;;;;;5.57;3.90;;;24.30;99.90;;;;;;5055566;28;20206;-58
2022/09/13 12:24:39;;;;;;;6.47;3.72;;;24.40;99.90;;;;;;5055626;28;20180;-58
2022/09/13 12:27:09;;;;;;;5.65;3.50;;;24.50;99.90;;;;;;5055439;28;20167;-58
2022/09/13 12:30:24;;;;;;;5.50;3.45;;;24.60;99.90;;;;;;5055317;28;20182;-58
2022/09/13 12:32:51;;;;;;;4.90;3.30;;;24.70;99.90;;;;;;5032457;28;20223;-58
2022/09/13 12:35:26;;;;;;;3.58;2.25;;;24.60;99.90;;;;;;5032988;28;20278;-58
2022/09/13 12:38:10;;;;;;;4.18;3.22;;;24.60;99.90;;;;;;5046649;28;20190;-58
2022/09/13 12:40:59;;;;;;;3.78;2.42;;;24.40;99.90;;;;;;5055220;28;20171;-58
2022/09/13 12:43:55;;;;;;;3.25;2.40;;;24.30;99.90;;;;;;5055162;28;20226;-58
2022/09/13 12:46:58;;;;;;;3.58;2.72;;;24.20;99.90;;;;;;5054984;28;20312;-58
2022/09/13 12:49:44;;;;;;;4.70;2.90;;;24.30;99.90;;;;;;5055001;28;20176;-58
2022/09/13 12:52:30;;;;;;;3.33;2.35;;;24.20;99.90;;;;;;5054868;28;20175;-58
2022/09/13 12:55:17;;;;;;;4.60;2.78;;;24.20;99.90;;;;;;5054769;28;20679;-59
2022/09/13 12:58:15;;;;;;;3.67;2.53;;;23.90;99.90;;;;;;5054895;28;20171;-58
2022/09/13 13:00:55;;;;;;;4.53;2.65;;;23.80;99.90;;;;;;5045919;28;20189;-58
2022/09/13 13:03:27;;;;;;;5.38;2.88;;;23.80;99.90;;;;;;5054480;28;20199;-58
2022/09/13 13:06:13;;;;;;;5.28;3.25;;;23.70;99.90;;;;;;5054736;28;20175;-58
2022/09/13 13:08:48;;;;;;;4.80;3.20;;;23.50;99.90;;;;;;5054625;28;20170;-58
2022/09/13 13:11:14;;;;;;;4.85;3.22;;;23.40;99.90;;;;;;5054821;28;20163;-58
2022/09/13 13:13:43;;;;;;;4.95;3.20;;;23.30;99.90;;;;;;5054226;28;20182;-58
2022/09/13 13:16:27;;;;;;;5.10;3.53;;;23.20;99.90;;;;;;5054866;28;20196;-58
2022/09/13 13:18:58;;;;;;;5.80;3.55;;;23.20;99.90;;;;;;5054384;28;20257;-58
2022/09/13 13:21:30;;;;;;;5.82;3.70;;;23.10;99.90;;;;;;5054263;28;20199;-58
2022/09/13 13:24:14;;;;;;;4.72;3.10;;;23.00;99.90;;;;;;5054237;28;20533;-58